Time,TemperatureF,DewpointF,PressureIn,WindDirection,WindDirectionDegrees,WindSpeedMPH,WindSpeedGustMPH,Humidity,HourlyPrecipIn,Conditions,Clouds,dailyrainin,SolarRadiationWatts/m^2,SoftwareType,DateUTC
2013-06-05 00:03:00,51.8,50.7,28.94,NW,325,0.0,0.0,96,0.00,RA,FEW,0.00,0.0,WeatherDisplay:10.37,2013-06-04 22:03:00,
2013-06-05 00:08:00,52.0,50.9,28.94,NW,325,0.0,0.0,96,0.00,CLR,FEW,0.00,0.0,WeatherDisplay:10.37,2013-06-04 22:08:00,
2013-06-05 00:13:00,52.0,50.9,28.94,NW,325,0.0,0.0,96,0.00,CLR,FEW,0.00,0.0,WeatherDisplay:10.37,2013-06-04 22:13:00,
2013-06-05 00:18:00,51.8,50.7,28.94,NW,325,1.1,1.1,96,0.00,CLR,FEW,0.00,0.0,WeatherDisplay:10.37,2013-06-04 22:18:00,
2013-06-05 00:23:00,51.6,50.5,28.91,NW,325,2.3,2.3,96,0.00,CLR,FEW,0.00,0.0,WeatherDisplay:10.37,2013-06-04 22:23:00,
2013-06-05 00:28:00,51.6,50.5,28.91,NW,325,2.3,2.3,96,0.00,CLR,FEW,0.00,0.0,WeatherDisplay:10.37,2013-06-04 22:28:00,
2013-06-05 00:33:00,51.4,50.1,28.91,WNW,290,0.0,0.0,95,0.00,CLR,FEW,0.00,0.0,WeatherDisplay:10.37,2013-06-04 22:33:00,
2013-06-05 00:38:00,51.4,50.1,28.91,WNW,290,0.0,0.0,95,0.00,CLR,FEW,0.00,0.0,WeatherDisplay:10.37,2013-06-04 22:38:00,
2013-06-05 00:43:00,51.6,50.5,28.91,NW,310,2.3,2.6,96,0.00,CLR,FEW,0.00,0.0,WeatherDisplay:10.37,2013-06-04 22:43:00,
2013-06-05 00:48:00,52.2,51.1,28.91,NW,310,0.0,0.0,96,0.00,CLR,FEW,0.00,0.0,WeatherDisplay:10.37,2013-06-04 22:48:00,
2013-06-05 00:53:00,52.5,51.4,28.94,NW,310,0.0,0.0,96,0.00,CLR,FEW,0.00,0.0,WeatherDisplay:10.37,2013-06-04 22:53:00,
2013-06-05 00:58:00,52.5,51.4,28.94,NW,310,0.0,0.0,96,0.00,CLR,FEW,0.00,0.0,WeatherDisplay:10.37,2013-06-04 22:58:00,
2013-06-05 01:03:00,52.5,51.4,28.94,NW,310,0.0,0.0,96,0.00,CLR,FEW,0.00,0.0,WeatherDisplay:10.37,2013-06-04 23:03:00,
2013-06-05 01:08:00,54.3,52.9,28.94,ESE,105,4.6,4.7,95,0.00,CLR,FEW,0.00,0.0,WeatherDisplay:10.37,2013-06-04 23:08:00,
2013-06-05 01:13:00,54.3,52.9,28.94,ESE,105,4.6,4.7,95,0.00,CLR,FEW,0.00,0.0,WeatherDisplay:10.37,2013-06-04 23:13:00,
2013-06-05 01:18:00,54.5,52.8,28.94,North,0,3.5,3.8,94,0.00,CLR,FEW,0.00,0.0,WeatherDisplay:10.37,2013-06-04 23:18:00,
2013-06-05 01:23:00,54.7,52.4,28.91,South,170,3.5,4.0,92,0.00,CLR,FEW,0.00,0.0,WeatherDisplay:10.37,2013-06-04 23:23:00,
2013-06-05 01:28:00,54.1,51.6,28.91,NE,35,1.1,1.1,91,0.00,CLR,FEW,0.00,0.0,WeatherDisplay:10.37,2013-06-04 23:28:00,
2013-06-05 01:33:00,54.0,51.4,28.91,West,270,3.5,3.5,91,0.00,CLR,FEW,0.00,0.0,WeatherDisplay:10.37,2013-06-04 23:33:00,
2013-06-05 01:38:00,54.0,51.4,28.91,West,270,3.5,3.5,91,0.00,CLR,FEW,0.00,0.0,WeatherDisplay:10.37,2013-06-04 23:38:00,
2013-06-05 01:43:00,54.1,51.9,28.91,NNW,345,3.5,3.5,92,0.00,CLR,FEW,0.00,0.0,WeatherDisplay:10.37,2013-06-04 23:43:00,
2013-06-05 01:48:00,54.3,51.7,28.91,SSE,160,3.5,3.5,91,0.00,CLR,FEW,0.00,0.0,WeatherDisplay:10.37,2013-06-04 23:48:00,
2013-06-05 01:53:00,53.8,50.9,28.94,SW,235,2.3,2.6,90,0.00,CLR,FEW,0.00,0.0,WeatherDisplay:10.37,2013-06-04 23:53:00,
2013-06-05 01:58:00,54.0,51.4,28.94,NNW,335,2.3,2.8,91,0.00,CLR,FEW,0.00,0.0,WeatherDisplay:10.37,2013-06-04 23:58:00,
2013-06-05 02:03:00,54.0,51.1,28.94,SSW,200,4.6,4.9,90,0.00,CLR,FEW,0.00,0.0,WeatherDisplay:10.37,2013-06-05 00:03:00,
2013-06-05 02:08:00,54.0,51.1,28.94,North,10,5.8,5.8,90,0.00,CLR,FEW,0.00,0.0,WeatherDisplay:10.37,2013-06-05 00:08:00,
2013-06-05 02:13:00,54.0,51.1,28.94,North,10,5.8,5.8,90,0.00,CLR,FEW,0.00,0.0,WeatherDisplay:10.37,2013-06-05 00:13:00,
2013-06-05 02:18:00,53.8,50.6,28.94,North,350,1.1,1.5,89,0.00,CLR,FEW,0.00,0.0,WeatherDisplay:10.37,2013-06-05 00:18:00,
2013-06-05 02:23:00,53.6,50.4,28.91,NE,50,4.6,4.6,89,0.00,CLR,FEW,0.00,0.0,WeatherDisplay:10.37,2013-06-05 00:23:00,
2013-06-05 02:28:00,53.2,50.1,28.91,SSE,155,0.0,0.2,89,0.00,CLR,FEW,0.00,0.0,WeatherDisplay:10.37,2013-06-05 00:28:00,
2013-06-05 02:33:00,52.9,49.7,28.91,NNE,20,4.6,4.6,89,0.00,CLR,FEW,0.00,0.0,WeatherDisplay:10.37,2013-06-05 00:33:00,
2013-06-05 02:38:00,52.9,49.7,28.91,NNE,20,4.6,4.6,89,0.00,CLR,FEW,0.00,0.0,WeatherDisplay:10.37,2013-06-05 00:38:00,
2013-06-05 02:43:00,52.7,49.5,28.91,SSE,160,5.8,5.8,89,0.00,CLR,FEW,0.00,0.0,WeatherDisplay:10.37,2013-06-05 00:43:00,
2013-06-05 02:48:00,52.5,49.4,28.91,West,265,2.3,2.3,89,0.00,CLR,FEW,0.00,0.0,WeatherDisplay:10.37,2013-06-05 00:48:00,
2013-06-05 02:53:00,52.2,49.0,28.91,West,265,0.0,0.0,89,0.00,CLR,FEW,0.00,0.0,WeatherDisplay:10.37,2013-06-05 00:53:00,
2013-06-05 02:58:00,51.4,48.3,28.91,NNE,20,0.0,0.0,89,0.00,CLR,FEW,0.00,0.0,WeatherDisplay:10.37,2013-06-05 00:58:00,
2013-06-05 03:03:00,50.9,48.1,28.91,West,265,0.0,0.6,90,0.00,CLR,FEW,0.00,0.0,WeatherDisplay:10.37,2013-06-05 01:03:00,
2013-06-05 03:08:00,50.7,47.9,28.91,West,265,0.0,0.0,90,0.00,CLR,FEW,0.00,0.0,WeatherDisplay:10.37,2013-06-05 01:08:00,
2013-06-05 03:13:00,50.7,47.9,28.91,West,265,0.0,0.0,90,0.00,CLR,FEW,0.00,0.0,WeatherDisplay:10.37,2013-06-05 01:13:00,
2013-06-05 03:18:00,50.2,47.4,28.91,West,265,0.0,0.0,90,0.00,CLR,FEW,0.00,0.0,WeatherDisplay:10.37,2013-06-05 01:18:00,
2013-06-05 03:23:00,49.3,46.8,28.91,NE,40,0.0,0.0,91,0.00,CLR,FEW,0.00,0.0,WeatherDisplay:10.37,2013-06-05 01:23:00,
2013-06-05 03:28:00,48.7,46.5,28.91,NE,40,0.0,0.0,92,0.00,CLR,FEW,0.00,0.0,WeatherDisplay:10.37,2013-06-05 01:28:00,
2013-06-05 03:33:00,48.2,46.0,28.91,NE,40,0.0,0.0,92,0.00,CLR,FEW,0.00,0.0,WeatherDisplay:10.37,2013-06-05 01:33:00,
2013-06-05 03:38:00,48.2,46.0,28.91,NE,40,0.0,0.0,92,0.00,CLR,FEW,0.00,0.0,WeatherDisplay:10.37,2013-06-05 01:38:00,
2013-06-05 03:43:00,48.0,45.8,28.91,WNW,290,0.0,0.0,92,0.00,CLR,FEW,0.00,0.0,WeatherDisplay:10.37,2013-06-05 01:43:00,
2013-06-05 03:48:00,47.5,45.6,28.91,WNW,290,0.0,0.0,93,0.00,CLR,FEW,0.00,0.0,WeatherDisplay:10.37,2013-06-05 01:48:00,
2013-06-05 03:53:00,47.1,45.2,28.91,NNE,20,0.0,0.0,93,0.00,CLR,FEW,0.00,0.0,WeatherDisplay:10.37,2013-06-05 01:53:00,
2013-06-05 03:58:00,46.8,45.1,28.91,North,355,1.1,1.3,94,0.00,CLR,FEW,0.00,0.0,WeatherDisplay:10.37,2013-06-05 01:58:00,
2013-06-05 04:03:00,46.9,45.3,28.91,North,0,2.3,2.6,94,0.00,CLR,FEW,0.00,0.0,WeatherDisplay:10.37,2013-06-05 02:03:00,
2013-06-05 04:08:00,46.4,45.0,28.91,NNE,25,1.1,1.1,95,0.00,CLR,FEW,0.00,0.0,WeatherDisplay:10.37,2013-06-05 02:08:00,
2013-06-05 04:13:00,46.4,45.0,28.91,NNE,25,1.1,1.1,95,0.00,CLR,FEW,0.00,0.0,WeatherDisplay:10.37,2013-06-05 02:13:00,
2013-06-05 04:18:00,47.1,45.8,28.91,NNW,330,2.3,2.3,95,0.00,CLR,FEW,0.00,0.0,WeatherDisplay:10.37,2013-06-05 02:18:00,
2013-06-05 04:23:00,46.4,45.0,28.91,NNW,330,0.0,0.0,95,0.00,CLR,FEW,0.00,0.0,WeatherDisplay:10.37,2013-06-05 02:23:00,
2013-06-05 04:28:00,46.0,44.7,28.91,NNW,330,0.0,0.0,95,0.00,OVC,FEW,0.00,0.0,WeatherDisplay:10.37,2013-06-05 02:28:00,
2013-06-05 04:33:00,46.2,44.9,28.91,NW,305,0.0,0.0,95,0.00,OVC,FEW,0.00,0.0,WeatherDisplay:10.37,2013-06-05 02:33:00,
2013-06-05 04:38:00,46.2,44.9,28.91,NW,305,0.0,0.0,95,0.00,OVC,FEW,0.00,0.0,WeatherDisplay:10.37,2013-06-05 02:38:00,
2013-06-05 04:43:00,45.5,44.2,28.94,NW,305,0.0,0.0,95,0.00,OVC,FEW,0.00,0.0,WeatherDisplay:10.37,2013-06-05 02:43:00,
2013-06-05 04:48:00,45.3,44.0,28.94,NW,305,0.0,0.0,95,0.00,OVC,FEW,0.00,0.0,WeatherDisplay:10.37,2013-06-05 02:48:00,
2013-06-05 04:53:00,45.3,44.0,28.91,NW,305,0.0,0.0,95,0.00,OVC,FEW,0.00,0.0,WeatherDisplay:10.37,2013-06-05 02:53:00,
2013-06-05 04:58:00,44.8,43.4,28.91,NW,320,0.0,0.0,95,0.00,OVC,FEW,0.00,0.0,WeatherDisplay:10.37,2013-06-05 02:58:00,
2013-06-05 05:03:00,44.8,43.4,28.91,NW,305,0.0,0.0,95,0.00,OVC,FEW,0.00,0.0,WeatherDisplay:10.37,2013-06-05 03:03:00,
2013-06-05 05:08:00,44.8,43.7,28.94,NW,305,0.0,0.0,96,0.00,OVC,FEW,0.00,0.0,WeatherDisplay:10.37,2013-06-05 03:08:00,
2013-06-05 05:13:00,44.8,43.7,28.94,NW,305,0.0,0.0,96,0.00,OVC,FEW,0.00,0.0,WeatherDisplay:10.37,2013-06-05 03:13:00,
2013-06-05 05:18:00,44.2,43.2,28.94,NW,305,0.0,0.0,96,0.00,OVC,FEW,0.00,0.0,WeatherDisplay:10.37,2013-06-05 03:18:00,
2013-06-05 05:23:00,44.1,43.0,28.91,NW,305,0.0,0.0,96,0.00,OVC,FEW,0.00,0.0,WeatherDisplay:10.37,2013-06-05 03:23:00,
2013-06-05 05:28:00,43.7,42.6,28.91,NNW,345,2.3,2.3,96,0.00,OVC,FEW,0.00,0.0,WeatherDisplay:10.37,2013-06-05 03:28:00,
2013-06-05 05:33:00,44.1,43.0,28.91,North,350,2.3,2.6,96,0.00,OVC,FEW,0.00,0.0,WeatherDisplay:10.37,2013-06-05 03:33:00,
2013-06-05 05:38:00,44.1,43.0,28.91,North,350,2.3,2.6,96,0.00,OVC,FEW,0.00,0.0,WeatherDisplay:10.37,2013-06-05 03:38:00,
2013-06-05 05:43:00,44.6,43.5,28.91,North,355,1.1,1.1,96,0.00,OVC,FEW,0.00,0.0,WeatherDisplay:10.37,2013-06-05 03:43:00,
2013-06-05 05:48:00,44.1,43.0,28.91,NE,45,0.0,0.0,96,0.00,OVC,FEW,0.00,0.0,WeatherDisplay:10.37,2013-06-05 03:48:00,
2013-06-05 05:53:00,44.8,43.7,28.94,NE,45,0.0,0.0,96,0.00,OVC,FEW,0.00,0.0,WeatherDisplay:10.37,2013-06-05 03:53:00,
2013-06-05 05:58:00,45.7,44.6,28.94,NE,45,0.0,0.0,96,0.00,OVC,FEW,0.00,0.0,WeatherDisplay:10.37,2013-06-05 03:58:00,
2013-06-05 06:01:00,45.7,44.6,28.94,NE,45,0.0,0.0,96,0.00,OVC,FEW,0.00,0.0,WeatherDisplay:10.37,2013-06-05 04:01:00,
2013-06-05 06:02:00,47.1,46.0,28.94,NE,45,0.0,0.0,96,0.00,OVC,FEW,0.00,0.0,WeatherDisplay:10.37,2013-06-05 04:02:00,
2013-06-05 06:07:00,46.0,45.0,28.91,North,0,0.0,0.0,96,0.00,OVC,FEW,0.00,0.0,WeatherDisplay:10.37,2013-06-05 04:07:00,
2013-06-05 06:12:00,46.0,45.0,28.91,North,0,0.0,0.0,96,0.00,OVC,FEW,0.00,0.0,WeatherDisplay:10.37,2013-06-05 04:12:00,
2013-06-05 06:17:00,46.4,45.3,28.91,North,10,2.3,2.3,96,0.00,OVC,FEW,0.00,0.0,WeatherDisplay:10.37,2013-06-05 04:17:00,
2013-06-05 06:22:00,47.3,45.9,28.94,NE,40,0.0,0.0,95,0.00,OVC,FEW,0.00,0.0,WeatherDisplay:10.37,2013-06-05 04:22:00,
2013-06-05 06:28:00,48.0,46.7,28.94,North,5,0.0,0.0,95,0.00,OVC,FEW,0.00,0.0,WeatherDisplay:10.37,2013-06-05 04:28:00,
2013-06-05 06:33:00,49.8,48.2,28.94,NNE,25,0.0,0.0,94,0.00,OVC,FEW,0.00,0.0,WeatherDisplay:10.37,2013-06-05 04:33:00,
2013-06-05 06:38:00,49.8,48.2,28.94,NNE,25,0.0,0.0,94,0.00,OVC,FEW,0.00,0.0,WeatherDisplay:10.37,2013-06-05 04:38:00,
2013-06-05 06:43:00,50.9,48.9,28.94,NNE,25,0.0,0.2,93,0.00,OVC,FEW,0.00,0.0,WeatherDisplay:10.37,2013-06-05 04:43:00,
2013-06-05 06:48:00,52.2,49.9,28.94,ENE,60,0.0,0.0,92,0.00,OVC,FEW,0.00,0.0,WeatherDisplay:10.37,2013-06-05 04:48:00,
2013-06-05 06:53:00,52.5,48.5,28.91,NE,35,1.1,1.7,86,0.00,OVC,FEW,0.00,0.0,WeatherDisplay:10.37,2013-06-05 04:53:00,
2013-06-05 06:58:00,51.8,47.7,28.91,North,0,3.5,3.8,86,0.00,OVC,FEW,0.00,0.0,WeatherDisplay:10.37,2013-06-05 04:58:00,
2013-06-05 07:03:00,51.8,47.1,28.91,North,10,6.9,6.9,84,0.00,OVC,FEW,0.00,0.0,WeatherDisplay:10.37,2013-06-05 05:03:00,
2013-06-05 07:08:00,52.0,47.3,28.94,North,355,6.9,7.0,84,0.00,OVC,FEW,0.00,0.0,WeatherDisplay:10.37,2013-06-05 05:08:00,
2013-06-05 07:13:00,52.0,47.3,28.94,North,355,6.9,7.0,84,0.00,OVC,FEW,0.00,0.0,WeatherDisplay:10.37,2013-06-05 05:13:00,
2013-06-05 07:18:00,52.3,46.7,28.94,North,355,6.9,6.9,81,0.00,OVC,FEW,0.00,0.0,WeatherDisplay:10.37,2013-06-05 05:18:00,
2013-06-05 07:23:00,52.7,46.4,28.94,WNW,285,3.5,4.0,79,0.00,OVC,FEW,0.00,0.0,WeatherDisplay:10.37,2013-06-05 05:23:00,
2013-06-05 07:28:00,52.9,46.5,28.94,ENE,60,4.6,4.6,79,0.00,OVC,FEW,0.00,0.0,WeatherDisplay:10.37,2013-06-05 05:28:00,
2013-06-05 07:33:00,52.5,45.5,28.94,NE,35,5.8,5.8,77,0.00,OVC,FEW,0.00,0.0,WeatherDisplay:10.37,2013-06-05 05:33:00,
2013-06-05 07:38:00,52.5,45.5,28.94,NE,35,5.8,5.8,77,0.00,OVC,FEW,0.00,0.0,WeatherDisplay:10.37,2013-06-05 05:38:00,
2013-06-05 07:43:00,53.1,46.0,28.94,NE,35,8.1,8.1,77,0.00,OVC,FEW,0.00,0.0,WeatherDisplay:10.37,2013-06-05 05:43:00,
2013-06-05 07:48:00,53.8,46.7,28.94,West,270,3.5,3.5,77,0.00,OVC,FEW,0.00,0.0,WeatherDisplay:10.37,2013-06-05 05:48:00,
2013-06-05 07:53:00,54.0,46.9,28.94,NNE,15,6.9,6.9,77,0.00,OVC,FEW,0.00,0.0,WeatherDisplay:10.37,2013-06-05 05:53:00,
2013-06-05 07:58:00,54.7,46.9,28.94,North,355,4.6,4.7,75,0.00,OVC,FEW,0.00,0.0,WeatherDisplay:10.37,2013-06-05 05:58:00,
2013-06-05 08:03:00,54.5,46.7,28.94,NE,50,3.5,3.5,75,0.00,OVC,FEW,0.00,0.0,WeatherDisplay:10.37,2013-06-05 06:03:00,
2013-06-05 08:08:00,54.7,46.9,28.94,NNE,30,5.8,5.8,75,0.00,OVC,FEW,0.00,0.0,WeatherDisplay:10.37,2013-06-05 06:08:00,
2013-06-05 08:13:00,54.7,46.9,28.94,NNE,30,5.8,5.8,75,0.00,OVC,FEW,0.00,0.0,WeatherDisplay:10.37,2013-06-05 06:13:00,
2013-06-05 08:18:00,54.1,46.0,28.94,NNW,335,5.8,6.0,74,0.00,OVC,FEW,0.00,0.0,WeatherDisplay:10.37,2013-06-05 06:18:00,
2013-06-05 08:23:00,54.3,45.8,28.94,ESE,110,8.1,8.1,73,0.00,OVC,FEW,0.00,0.0,WeatherDisplay:10.37,2013-06-05 06:23:00,
2013-06-05 08:28:00,55.0,46.5,28.94,NE,35,4.6,4.9,73,0.00,OVC,FEW,0.00,0.0,WeatherDisplay:10.37,2013-06-05 06:28:00,
2013-06-05 08:33:00,55.8,47.2,28.94,NW,320,3.5,3.5,73,0.00,OVC,FEW,0.00,0.0,WeatherDisplay:10.37,2013-06-05 06:33:00,
2013-06-05 08:38:00,55.8,47.2,28.94,NW,320,3.5,3.5,73,0.00,OVC,FEW,0.00,0.0,WeatherDisplay:10.37,2013-06-05 06:38:00,
2013-06-05 08:43:00,56.3,47.8,28.94,NW,310,3.5,3.8,73,0.00,OVC,FEW,0.00,0.0,WeatherDisplay:10.37,2013-06-05 06:43:00,
2013-06-05 08:48:00,56.1,48.3,28.94,NE,40,4.6,4.6,75,0.00,OVC,FEW,0.00,0.0,WeatherDisplay:10.37,2013-06-05 06:48:00,
2013-06-05 08:53:00,56.1,47.9,28.94,NW,310,4.6,4.6,74,0.00,OVC,FEW,0.00,0.0,WeatherDisplay:10.37,2013-06-05 06:53:00,
2013-06-05 08:58:00,56.3,46.6,28.94,NNE,30,6.9,7.0,70,0.00,OVC,FEW,0.00,0.0,WeatherDisplay:10.37,2013-06-05 06:58:00,
2013-06-05 09:03:00,57.6,48.2,28.94,WNW,285,0.0,0.4,71,0.00,OVC,FEW,0.00,0.0,WeatherDisplay:10.37,2013-06-05 07:03:00,
2013-06-05 09:08:00,58.6,48.9,28.94,North,5,1.1,1.7,70,0.00,OVC,FEW,0.00,0.0,WeatherDisplay:10.37,2013-06-05 07:08:00,
2013-06-05 09:13:00,58.6,48.9,28.94,North,5,1.1,1.7,70,0.00,OVC,FEW,0.00,0.0,WeatherDisplay:10.37,2013-06-05 07:13:00,
2013-06-05 09:18:00,57.0,46.6,28.94,East,90,6.9,6.9,68,0.00,OVC,FEW,0.00,0.0,WeatherDisplay:10.37,2013-06-05 07:18:00,
2013-06-05 09:23:00,57.9,47.8,28.94,North,350,5.8,5.8,69,0.00,OVC,FEW,0.00,0.0,WeatherDisplay:10.37,2013-06-05 07:23:00,
2013-06-05 09:28:00,59.0,48.4,28.94,ESE,110,2.3,2.3,68,0.00,OVC,FEW,0.00,0.0,WeatherDisplay:10.37,2013-06-05 07:28:00,
2013-06-05 09:33:00,58.3,46.2,28.94,ESE,110,8.1,8.1,64,0.00,OVC,FEW,0.00,0.0,WeatherDisplay:10.37,2013-06-05 07:33:00,
2013-06-05 09:38:00,58.3,46.2,28.94,ESE,110,8.1,8.1,64,0.00,OVC,FEW,0.00,0.0,WeatherDisplay:10.37,2013-06-05 07:38:00,
2013-06-05 09:43:00,59.2,46.2,28.94,East,80,4.6,4.6,62,0.00,OVC,FEW,0.00,0.0,WeatherDisplay:10.37,2013-06-05 07:43:00,
2013-06-05 09:48:00,59.0,46.0,28.94,SSE,155,6.9,6.9,62,0.00,OVC,FEW,0.00,0.0,WeatherDisplay:10.37,2013-06-05 07:48:00,
2013-06-05 09:53:00,59.0,46.4,28.94,East,90,6.9,6.9,63,0.00,OVC,FEW,0.00,0.0,WeatherDisplay:10.37,2013-06-05 07:53:00,
2013-06-05 09:58:00,59.0,45.1,28.94,NE,35,8.1,8.3,60,0.00,OVC,FEW,0.00,0.0,WeatherDisplay:10.37,2013-06-05 07:58:00,
2013-06-05 10:03:00,59.0,45.6,28.94,NNE,15,8.1,8.1,61,0.00,OVC,FEW,0.00,0.0,WeatherDisplay:10.37,2013-06-05 08:03:00,
2013-06-05 10:08:00,59.2,45.7,28.94,North,355,8.1,8.1,61,0.00,OVC,FEW,0.00,0.0,WeatherDisplay:10.37,2013-06-05 08:08:00,
2013-06-05 10:13:00,59.2,45.7,28.94,North,355,8.1,8.1,61,0.00,OVC,FEW,0.00,0.0,WeatherDisplay:10.37,2013-06-05 08:13:00,
2013-06-05 10:18:00,59.7,45.8,28.94,NE,45,4.6,5.1,60,0.00,OVC,FEW,0.00,0.0,WeatherDisplay:10.37,2013-06-05 08:18:00,
2013-06-05 10:23:00,60.1,45.2,28.94,NE,55,6.9,6.9,58,0.00,OVC,FEW,0.00,0.0,WeatherDisplay:10.37,2013-06-05 08:23:00,
2013-06-05 10:28:00,59.9,44.6,28.94,SSW,195,9.2,9.2,57,0.00,OVC,FEW,0.00,0.0,WeatherDisplay:10.37,2013-06-05 08:28:00,
2013-06-05 10:33:00,60.4,45.6,28.94,SSE,165,6.9,6.9,58,0.00,OVC,FEW,0.00,0.0,WeatherDisplay:10.37,2013-06-05 08:33:00,
2013-06-05 10:38:00,60.4,45.6,28.94,SSE,165,6.9,6.9,58,0.00,OVC,FEW,0.00,0.0,WeatherDisplay:10.37,2013-06-05 08:38:00,
2013-06-05 10:43:00,60.4,45.6,28.94,SSE,165,6.9,6.9,58,0.00,OVC,FEW,0.00,0.0,WeatherDisplay:10.37,2013-06-05 08:43:00,
2013-06-05 10:48:00,60.3,45.0,28.94,East,80,6.9,6.9,57,0.00,OVC,FEW,0.00,0.0,WeatherDisplay:10.37,2013-06-05 08:48:00,
2013-06-05 10:53:00,60.6,45.3,28.94,East,90,10.4,10.4,57,0.00,OVC,FEW,0.00,0.0,WeatherDisplay:10.37,2013-06-05 08:53:00,
2013-06-05 10:58:00,61.0,46.1,28.94,ENE,65,5.8,5.8,58,0.00,OVC,FEW,0.00,0.0,WeatherDisplay:10.37,2013-06-05 08:58:00,
2013-06-05 11:03:00,60.8,45.9,28.94,ESE,120,8.1,8.1,58,0.00,OVC,FEW,0.00,0.0,WeatherDisplay:10.37,2013-06-05 09:03:00,
2013-06-05 11:08:00,60.8,45.5,28.94,South,175,8.1,8.1,57,0.00,OVC,FEW,0.00,0.0,WeatherDisplay:10.37,2013-06-05 09:08:00,
2013-06-05 11:13:00,60.8,45.5,28.94,South,175,8.1,8.1,57,0.00,OVC,FEW,0.00,0.0,WeatherDisplay:10.37,2013-06-05 09:13:00,
2013-06-05 11:18:00,61.2,45.8,28.94,SE,130,10.4,10.4,57,0.00,OVC,FEW,0.00,0.0,WeatherDisplay:10.37,2013-06-05 09:18:00,
2013-06-05 11:23:00,61.7,46.3,28.94,NNE,15,8.1,8.3,57,0.00,OVC,FEW,0.00,0.0,WeatherDisplay:10.37,2013-06-05 09:23:00,
2013-06-05 11:28:00,61.5,46.1,28.94,SSE,165,6.9,7.1,57,0.00,OVC,FEW,0.00,0.0,WeatherDisplay:10.37,2013-06-05 09:28:00,
2013-06-05 11:33:00,62.1,47.1,28.94,SSE,165,5.8,6.2,58,0.00,OVC,FEW,0.00,0.0,WeatherDisplay:10.37,2013-06-05 09:33:00,
2013-06-05 11:38:00,62.1,47.1,28.94,SSE,165,5.8,6.2,58,0.00,OVC,FEW,0.00,0.0,WeatherDisplay:10.37,2013-06-05 09:38:00,
2013-06-05 11:43:00,61.5,46.1,28.94,SE,135,11.5,12.1,57,0.00,OVC,FEW,0.00,0.0,WeatherDisplay:10.37,2013-06-05 09:43:00,
2013-06-05 11:48:00,62.6,48.1,28.94,NE,35,8.1,8.3,59,0.00,OVC,FEW,0.00,0.0,WeatherDisplay:10.37,2013-06-05 09:48:00,
2013-06-05 11:53:00,61.9,45.5,28.94,South,170,8.1,8.5,55,0.00,OVC,FEW,0.00,0.0,WeatherDisplay:10.37,2013-06-05 09:53:00,
2013-06-05 11:58:00,61.9,46.5,28.94,South,170,9.2,9.4,57,0.00,OVC,FEW,0.00,0.0,WeatherDisplay:10.37,2013-06-05 09:58:00,
2013-06-05 12:03:00,62.1,47.1,28.94,SE,130,9.2,9.4,58,0.00,OVC,FEW,0.00,0.0,WeatherDisplay:10.37,2013-06-05 10:03:00,
2013-06-05 12:08:00,61.7,46.3,28.94,SE,130,11.5,12.1,57,0.00,OVC,FEW,0.00,0.0,WeatherDisplay:10.37,2013-06-05 10:08:00,
2013-06-05 12:13:00,61.7,46.3,28.94,SE,130,11.5,12.1,57,0.00,OVC,FEW,0.00,0.0,WeatherDisplay:10.37,2013-06-05 10:13:00,
2013-06-05 12:18:00,62.4,47.4,28.94,West,265,8.1,8.5,58,0.00,OVC,FEW,0.00,0.0,WeatherDisplay:10.37,2013-06-05 10:18:00,
2013-06-05 12:23:00,62.2,45.9,28.94,SSE,165,11.5,11.5,55,0.00,OVC,FEW,0.00,0.0,WeatherDisplay:10.37,2013-06-05 10:23:00,
2013-06-05 12:28:00,62.2,45.4,28.94,South,170,11.5,11.7,54,0.00,OVC,FEW,0.00,0.0,WeatherDisplay:10.37,2013-06-05 10:28:00,
2013-06-05 12:33:00,62.8,46.4,28.94,SSE,155,13.8,13.8,55,0.00,OVC,FEW,0.00,0.0,WeatherDisplay:10.37,2013-06-05 10:33:00,
2013-06-05 12:38:00,62.8,46.4,28.94,SSE,155,13.8,13.8,55,0.00,OVC,FEW,0.00,0.0,WeatherDisplay:10.37,2013-06-05 10:38:00,
2013-06-05 12:43:00,63.0,45.6,28.94,NW,315,5.8,5.8,53,0.00,OVC,FEW,0.00,0.0,WeatherDisplay:10.37,2013-06-05 10:43:00,
2013-06-05 12:48:00,63.5,46.6,28.94,SSE,150,8.1,8.3,54,0.00,OVC,FEW,0.00,0.0,WeatherDisplay:10.37,2013-06-05 10:48:00,
2013-06-05 12:53:00,63.7,47.2,28.94,SE,130,10.4,10.7,55,0.00,OVC,FEW,0.00,0.0,WeatherDisplay:10.37,2013-06-05 10:53:00,
2013-06-05 12:58:00,63.3,47.8,28.94,SE,130,11.5,12.1,57,0.00,OVC,FEW,0.00,0.0,WeatherDisplay:10.37,2013-06-05 10:58:00,
2013-06-05 13:03:00,63.3,46.9,28.94,SSE,165,5.8,5.8,55,0.00,OVC,FEW,0.00,0.0,WeatherDisplay:10.37,2013-06-05 11:03:00,
2013-06-05 13:08:00,63.9,47.9,28.94,SE,125,6.9,7.3,56,0.00,OVC,FEW,0.00,0.0,WeatherDisplay:10.37,2013-06-05 11:08:00,
2013-06-05 13:13:00,63.9,47.9,28.94,SE,125,6.9,7.3,56,0.00,OVC,FEW,0.00,0.0,WeatherDisplay:10.37,2013-06-05 11:13:00,
2013-06-05 13:18:00,63.0,45.1,28.94,SSW,205,8.1,8.1,52,0.00,OVC,FEW,0.00,0.0,WeatherDisplay:10.37,2013-06-05 11:18:00,
2013-06-05 13:23:00,63.7,46.7,28.91,North,355,6.9,6.9,54,0.00,OVC,FEW,0.00,0.0,WeatherDisplay:10.37,2013-06-05 11:23:00,
2013-06-05 13:28:00,63.7,47.2,28.91,SE,145,8.1,8.1,55,0.00,OVC,FEW,0.00,0.0,WeatherDisplay:10.37,2013-06-05 11:28:00,
2013-06-05 13:33:00,63.0,46.5,28.91,SE,125,8.1,8.1,55,0.00,OVC,FEW,0.00,0.0,WeatherDisplay:10.37,2013-06-05 11:33:00,
2013-06-05 13:38:00,63.0,46.5,28.91,SE,125,8.1,8.1,55,0.00,OVC,FEW,0.00,0.0,WeatherDisplay:10.37,2013-06-05 11:38:00,
2013-06-05 13:43:00,63.5,47.5,28.94,East,90,6.9,6.9,56,0.00,OVC,FEW,0.00,0.0,WeatherDisplay:10.37,2013-06-05 11:43:00,
2013-06-05 13:48:00,63.5,47.5,28.94,East,90,6.9,6.9,56,0.00,OVC,FEW,0.00,0.0,WeatherDisplay:10.37,2013-06-05 11:48:00,
2013-06-05 13:53:00,64.2,48.2,28.91,NE,45,8.1,8.1,56,0.00,OVC,FEW,0.00,0.0,WeatherDisplay:10.37,2013-06-05 11:53:00,
2013-06-05 13:58:00,64.2,48.7,28.91,SE,125,6.9,7.1,57,0.00,OVC,FEW,0.00,0.0,WeatherDisplay:10.37,2013-06-05 11:58:00,
2013-06-05 14:03:00,64.4,49.3,28.91,South,180,6.9,7.1,58,0.00,OVC,FEW,0.00,0.0,WeatherDisplay:10.37,2013-06-05 12:03:00,
2013-06-05 14:08:00,64.6,49.0,28.94,ESE,115,9.2,9.2,57,0.00,OVC,FEW,0.00,0.0,WeatherDisplay:10.37,2013-06-05 12:08:00,
2013-06-05 14:13:00,64.6,49.0,28.94,ESE,115,9.2,9.2,57,0.00,OVC,FEW,0.00,0.0,WeatherDisplay:10.37,2013-06-05 12:13:00,
2013-06-05 14:18:00,64.0,48.0,28.94,South,190,12.7,12.7,56,0.00,OVC,FEW,0.00,0.0,WeatherDisplay:10.37,2013-06-05 12:18:00,
2013-06-05 14:23:00,64.8,48.7,28.91,ENE,75,9.2,9.8,56,0.00,OVC,FEW,0.00,0.0,WeatherDisplay:10.37,2013-06-05 12:23:00,
2013-06-05 14:28:00,65.3,49.7,28.91,SSE,155,5.8,6.2,57,0.00,OVC,FEW,0.00,0.0,WeatherDisplay:10.37,2013-06-05 12:28:00,
2013-06-05 14:33:00,65.5,49.8,28.91,SE,140,6.9,7.1,57,0.00,OVC,FEW,0.00,0.0,WeatherDisplay:10.37,2013-06-05 12:33:00,
2013-06-05 14:38:00,65.5,49.8,28.91,SE,140,6.9,7.1,57,0.00,OVC,FEW,0.00,0.0,WeatherDisplay:10.37,2013-06-05 12:38:00,
2013-06-05 14:43:00,65.1,49.0,28.91,SSE,160,10.4,10.5,56,0.00,OVC,FEW,0.00,0.0,WeatherDisplay:10.37,2013-06-05 12:43:00,
2013-06-05 14:48:00,65.1,49.0,28.91,NE,55,6.9,7.1,56,0.00,OVC,FEW,0.00,0.0,WeatherDisplay:10.37,2013-06-05 12:48:00,
2013-06-05 14:53:00,65.5,49.8,28.91,NE,40,8.1,8.3,57,0.00,OVC,FEW,0.00,0.0,WeatherDisplay:10.37,2013-06-05 12:53:00,
2013-06-05 14:58:00,65.5,50.3,28.91,NE,40,11.5,11.5,58,0.00,OVC,FEW,0.00,0.0,WeatherDisplay:10.37,2013-06-05 12:58:00,
2013-06-05 15:03:00,65.8,50.6,28.91,East,90,8.1,8.1,58,0.00,OVC,FEW,0.00,0.0,WeatherDisplay:10.37,2013-06-05 13:03:00,
2013-06-05 15:08:00,66.0,50.8,28.94,South,180,8.1,8.1,58,0.00,OVC,FEW,0.00,0.0,WeatherDisplay:10.37,2013-06-05 13:08:00,
2013-06-05 15:13:00,66.0,50.8,28.94,South,180,8.1,8.1,58,0.00,OVC,FEW,0.00,0.0,WeatherDisplay:10.37,2013-06-05 13:13:00,
2013-06-05 15:18:00,66.0,50.8,28.94,South,180,8.1,8.1,58,0.00,OVC,FEW,0.00,0.0,WeatherDisplay:10.37,2013-06-05 13:18:00,
2013-06-05 15:23:00,66.0,51.3,28.91,SE,140,6.9,7.3,59,0.00,OVC,FEW,0.00,0.0,WeatherDisplay:10.37,2013-06-05 13:23:00,
2013-06-05 15:28:00,65.7,50.0,28.91,ENE,65,5.8,5.8,57,0.00,OVC,FEW,0.00,0.0,WeatherDisplay:10.37,2013-06-05 13:28:00,
2013-06-05 15:33:00,66.0,49.4,28.91,NNE,30,6.9,6.9,55,0.00,OVC,FEW,0.00,0.0,WeatherDisplay:10.37,2013-06-05 13:33:00,
2013-06-05 15:38:00,66.0,49.4,28.91,NNE,30,6.9,6.9,55,0.00,OVC,FEW,0.00,0.0,WeatherDisplay:10.37,2013-06-05 13:38:00,
2013-06-05 15:43:00,66.6,50.4,28.91,South,190,9.2,9.2,56,0.00,OVC,FEW,0.00,0.0,WeatherDisplay:10.37,2013-06-05 13:43:00,
2013-06-05 15:48:00,66.6,50.4,28.91,South,190,9.2,9.2,56,0.00,OVC,FEW,0.00,0.0,WeatherDisplay:10.37,2013-06-05 13:48:00,
2013-06-05 15:53:00,65.8,48.7,28.91,South,175,9.2,9.6,54,0.00,OVC,FEW,0.00,0.0,WeatherDisplay:10.37,2013-06-05 13:53:00,
2013-06-05 15:58:00,66.4,49.7,28.91,SSE,165,10.4,10.7,55,0.00,OVC,FEW,0.00,0.0,WeatherDisplay:10.37,2013-06-05 13:58:00,
2013-06-05 16:03:00,65.8,50.2,28.91,SSE,150,10.4,10.7,57,0.00,OVC,FEW,0.00,0.0,WeatherDisplay:10.37,2013-06-05 14:03:00,
2013-06-05 16:08:00,65.5,49.8,28.94,NNE,30,11.5,11.7,57,0.00,OVC,FEW,0.00,0.0,WeatherDisplay:10.37,2013-06-05 14:08:00,
2013-06-05 16:13:00,65.5,49.8,28.94,NNE,30,11.5,11.7,57,0.00,OVC,FEW,0.00,0.0,WeatherDisplay:10.37,2013-06-05 14:13:00,
2013-06-05 16:18:00,65.5,48.9,28.94,ESE,105,9.2,9.6,55,0.00,OVC,FEW,0.00,0.0,WeatherDisplay:10.37,2013-06-05 14:18:00,
2013-06-05 16:23:00,65.7,48.6,28.91,South,180,9.2,9.2,54,0.00,OVC,FEW,0.00,0.0,WeatherDisplay:10.37,2013-06-05 14:23:00,
2013-06-05 16:28:00,65.1,48.5,28.91,SE,145,12.7,12.8,55,0.00,OVC,FEW,0.00,0.0,WeatherDisplay:10.37,2013-06-05 14:28:00,
2013-06-05 16:33:00,64.8,48.7,28.91,SE,135,10.4,10.5,56,0.00,OVC,FEW,0.00,0.0,WeatherDisplay:10.37,2013-06-05 14:33:00,
2013-06-05 16:38:00,64.8,48.7,28.91,SE,135,10.4,10.5,56,0.00,OVC,FEW,0.00,0.0,WeatherDisplay:10.37,2013-06-05 14:38:00,
2013-06-05 16:43:00,64.4,47.4,28.91,South,170,11.5,11.7,54,0.00,OVC,FEW,0.00,0.0,WeatherDisplay:10.37,2013-06-05 14:43:00,
2013-06-05 16:48:00,64.4,47.9,28.91,SSE,160,15.0,15.0,55,0.00,OVC,FEW,0.00,0.0,WeatherDisplay:10.37,2013-06-05 14:48:00,
2013-06-05 16:53:00,64.8,48.7,28.94,South,185,10.4,10.5,56,0.00,OVC,FEW,0.00,0.0,WeatherDisplay:10.37,2013-06-05 14:53:00,
2013-06-05 16:58:00,64.8,48.2,28.94,South,170,15.0,15.0,55,0.00,OVC,FEW,0.00,0.0,WeatherDisplay:10.37,2013-06-05 14:58:00,
2013-06-05 17:03:00,64.9,47.9,28.94,SE,140,10.4,10.5,54,0.00,OVC,FEW,0.00,0.0,WeatherDisplay:10.37,2013-06-05 15:03:00,
2013-06-05 17:08:00,64.9,48.4,28.91,SE,130,11.5,11.5,55,0.00,OVC,FEW,0.00,0.0,WeatherDisplay:10.37,2013-06-05 15:08:00,
2013-06-05 17:13:00,64.9,48.4,28.91,SE,130,11.5,11.5,55,0.00,OVC,FEW,0.00,0.0,WeatherDisplay:10.37,2013-06-05 15:13:00,
2013-06-05 17:18:00,65.1,48.5,28.91,NE,35,8.1,8.1,55,0.00,OVC,FEW,0.00,0.0,WeatherDisplay:10.37,2013-06-05 15:18:00,
2013-06-05 17:23:00,65.1,49.5,28.91,SSW,195,11.5,11.9,57,0.00,OVC,FEW,0.00,0.0,WeatherDisplay:10.37,2013-06-05 15:23:00,
2013-06-05 17:28:00,65.3,48.7,28.91,South,190,13.8,13.8,55,0.00,OVC,FEW,0.00,0.0,WeatherDisplay:10.37,2013-06-05 15:28:00,
2013-06-05 17:33:00,65.8,49.7,28.91,SE,140,6.9,6.9,56,0.00,OVC,FEW,0.00,0.0,WeatherDisplay:10.37,2013-06-05 15:33:00,
2013-06-05 17:38:00,65.8,49.7,28.91,SE,140,6.9,6.9,56,0.00,OVC,FEW,0.00,0.0,WeatherDisplay:10.37,2013-06-05 15:38:00,
2013-06-05 17:43:00,66.2,50.0,28.91,South,175,5.8,5.8,56,0.00,OVC,FEW,0.00,0.0,WeatherDisplay:10.37,2013-06-05 15:43:00,
2013-06-05 17:48:00,66.7,50.5,28.91,South,180,4.6,4.9,56,0.00,OVC,FEW,0.00,0.0,WeatherDisplay:10.37,2013-06-05 15:48:00,
2013-06-05 17:53:00,66.2,50.5,28.91,SSE,155,8.1,8.1,57,0.00,OVC,FEW,0.00,0.0,WeatherDisplay:10.37,2013-06-05 15:53:00,
2013-06-05 17:58:00,65.8,50.2,28.91,South,175,9.2,9.2,57,0.00,OVC,FEW,0.00,0.0,WeatherDisplay:10.37,2013-06-05 15:58:00,
2013-06-05 18:03:00,65.5,50.3,28.91,South,180,13.8,13.8,58,0.00,OVC,FEW,0.00,0.0,WeatherDisplay:10.37,2013-06-05 16:03:00,
2013-06-05 18:08:00,66.0,51.7,28.91,SE,130,6.9,7.1,60,0.00,OVC,FEW,0.00,0.0,WeatherDisplay:10.37,2013-06-05 16:08:00,
2013-06-05 18:13:00,66.0,51.7,28.91,SE,130,6.9,7.1,60,0.00,OVC,FEW,0.00,0.0,WeatherDisplay:10.37,2013-06-05 16:13:00,
2013-06-05 18:18:00,64.4,50.7,28.91,SSW,200,11.5,11.5,61,0.00,OVC,FEW,0.00,0.0,WeatherDisplay:10.37,2013-06-05 16:18:00,
2013-06-05 18:23:00,64.4,50.7,28.91,SSW,200,11.5,11.5,61,0.00,OVC,FEW,0.00,0.0,WeatherDisplay:10.37,2013-06-05 16:23:00,
2013-06-05 18:28:00,64.2,51.8,28.91,South,190,5.8,5.8,64,0.00,OVC,FEW,0.00,0.0,WeatherDisplay:10.37,2013-06-05 16:28:00,
2013-06-05 18:33:00,63.7,51.7,28.91,SSE,160,9.2,9.2,65,0.00,OVC,FEW,0.00,0.0,WeatherDisplay:10.37,2013-06-05 16:33:00,
2013-06-05 18:38:00,63.7,51.7,28.91,SSE,160,9.2,9.2,65,0.00,OVC,FEW,0.00,0.0,WeatherDisplay:10.37,2013-06-05 16:38:00,
2013-06-05 18:43:00,64.2,51.8,28.91,SSE,160,8.1,8.5,64,0.00,OVC,FEW,0.00,0.0,WeatherDisplay:10.37,2013-06-05 16:43:00,
2013-06-05 18:48:00,64.2,51.8,28.91,South,170,9.2,9.4,64,0.00,OVC,FEW,0.00,0.0,WeatherDisplay:10.37,2013-06-05 16:48:00,
2013-06-05 18:53:00,64.8,52.3,28.91,SE,130,6.9,7.3,64,0.00,OVC,FEW,0.00,0.0,WeatherDisplay:10.37,2013-06-05 16:53:00,
2013-06-05 18:58:00,64.8,52.3,28.91,SSW,205,6.9,6.9,64,0.00,OVC,FEW,0.00,0.0,WeatherDisplay:10.37,2013-06-05 16:58:00,
2013-06-05 19:03:00,64.6,52.5,28.91,South,190,3.5,4.0,65,0.00,OVC,FEW,0.00,0.0,WeatherDisplay:10.37,2013-06-05 17:03:00,
2013-06-05 19:08:00,63.9,51.9,28.91,East,90,4.6,4.6,65,0.00,OVC,FEW,0.00,0.0,WeatherDisplay:10.37,2013-06-05 17:08:00,
2013-06-05 19:13:00,64.0,52.0,28.91,South,190,7.3,7.3,65,0.00,OVC,FEW,0.00,0.0,WeatherDisplay:10.37,2013-06-05 17:13:00,
2013-06-05 19:18:00,64.0,52.0,28.91,South,190,6.9,7.3,65,0.00,OVC,FEW,0.00,0.0,WeatherDisplay:10.37,2013-06-05 17:18:00,
2013-06-05 19:23:00,64.8,52.3,28.94,ESE,105,6.9,6.9,64,0.00,OVC,FEW,0.00,0.0,WeatherDisplay:10.37,2013-06-05 17:23:00,
2013-06-05 19:28:00,64.0,52.4,28.94,South,180,8.1,8.5,66,0.00,OVC,FEW,0.00,0.0,WeatherDisplay:10.37,2013-06-05 17:28:00,
2013-06-05 19:33:00,64.0,52.4,28.94,South,180,8.1,8.5,66,0.00,OVC,FEW,0.00,0.0,WeatherDisplay:10.37,2013-06-05 17:33:00,
2013-06-05 19:38:00,62.6,51.9,28.94,SSE,155,8.1,8.1,68,0.00,OVC,FEW,0.00,0.0,WeatherDisplay:10.37,2013-06-05 17:38:00,
2013-06-05 19:43:00,62.6,51.9,28.94,SSE,155,8.1,8.1,68,0.00,OVC,FEW,0.00,0.0,WeatherDisplay:10.37,2013-06-05 17:43:00,
2013-06-05 19:48:00,62.6,51.9,28.94,SE,140,6.9,6.9,68,0.00,OVC,FEW,0.00,0.0,WeatherDisplay:10.37,2013-06-05 17:48:00,
2013-06-05 19:53:00,62.8,52.1,28.94,SE,125,5.8,6.2,68,0.00,OVC,FEW,0.00,0.0,WeatherDisplay:10.37,2013-06-05 17:53:00,
2013-06-05 19:58:00,62.4,51.7,28.94,South,170,3.5,4.0,68,0.00,OVC,FEW,0.00,0.0,WeatherDisplay:10.37,2013-06-05 17:58:00,
2013-06-05 20:03:00,61.9,51.2,28.94,ESE,120,5.8,5.8,68,0.00,OVC,FEW,0.00,0.0,WeatherDisplay:10.37,2013-06-05 18:03:00,
2013-06-05 20:08:00,61.5,51.6,28.94,South,185,4.6,5.1,70,0.00,OVC,FEW,0.00,0.0,WeatherDisplay:10.37,2013-06-05 18:08:00,
2013-06-05 20:13:00,61.0,51.9,28.94,ESE,105,4.6,4.6,72,0.00,OVC,FEW,0.00,0.0,WeatherDisplay:10.37,2013-06-05 18:13:00,
2013-06-05 20:18:00,61.0,51.9,28.94,ESE,105,4.6,4.6,72,0.00,OVC,FEW,0.00,0.0,WeatherDisplay:10.37,2013-06-05 18:18:00,
2013-06-05 20:23:00,60.6,51.9,28.94,SE,130,4.6,4.9,73,0.00,OVC,FEW,0.00,0.0,WeatherDisplay:10.37,2013-06-05 18:23:00,
2013-06-05 20:28:00,60.3,51.9,28.94,South,180,2.3,2.6,74,0.00,OVC,FEW,0.00,0.0,WeatherDisplay:10.37,2013-06-05 18:28:00,
2013-06-05 20:33:00,60.1,52.1,28.94,SSW,195,5.8,6.2,75,0.00,OVC,FEW,0.00,0.0,WeatherDisplay:10.37,2013-06-05 18:33:00,
2013-06-05 20:38:00,59.9,52.3,28.94,SSW,200,5.8,5.8,76,0.00,OVC,FEW,0.00,0.0,WeatherDisplay:10.37,2013-06-05 18:38:00,
2013-06-05 20:43:00,59.9,52.3,28.94,SSW,200,5.8,5.8,76,0.00,OVC,FEW,0.00,0.0,WeatherDisplay:10.37,2013-06-05 18:43:00,
2013-06-05 20:48:00,59.7,52.5,28.94,South,170,5.8,5.8,77,0.00,OVC,FEW,0.00,0.0,WeatherDisplay:10.37,2013-06-05 18:48:00,
2013-06-05 20:53:00,59.7,52.5,28.94,SSW,210,4.6,5.1,77,0.00,OVC,FEW,0.00,0.0,WeatherDisplay:10.37,2013-06-05 18:53:00,
2013-06-05 20:58:00,59.4,52.5,28.94,SSW,195,5.8,5.8,78,0.00,OVC,FEW,0.00,0.0,WeatherDisplay:10.37,2013-06-05 18:58:00,
2013-06-05 21:03:00,59.2,52.7,28.94,SSE,160,3.5,3.5,79,0.00,OVC,FEW,0.00,0.0,WeatherDisplay:10.37,2013-06-05 19:03:00,
2013-06-05 21:08:00,59.0,52.8,28.94,SSE,165,3.5,3.5,80,0.00,OVC,FEW,0.00,0.0,WeatherDisplay:10.37,2013-06-05 19:08:00,
2013-06-05 21:13:00,58.8,52.7,28.94,SSW,200,3.5,3.8,80,0.00,OVC,FEW,0.00,0.0,WeatherDisplay:10.37,2013-06-05 19:13:00,
2013-06-05 21:18:00,58.8,52.7,28.94,SSW,200,3.5,3.8,80,0.00,OVC,FEW,0.00,0.0,WeatherDisplay:10.37,2013-06-05 19:18:00,
2013-06-05 21:23:00,58.6,52.1,28.94,SSE,150,3.5,3.8,79,0.00,OVC,FEW,0.00,0.0,WeatherDisplay:10.37,2013-06-05 19:23:00,
2013-06-05 21:28:00,58.5,52.0,28.94,SSE,150,3.5,3.5,79,0.00,OVC,FEW,0.00,0.0,WeatherDisplay:10.37,2013-06-05 19:28:00,
2013-06-05 21:33:00,58.3,51.8,28.94,South,170,3.5,3.5,79,0.00,OVC,FEW,0.00,0.0,WeatherDisplay:10.37,2013-06-05 19:33:00,
2013-06-05 21:38:00,58.3,51.8,28.94,SSE,150,2.3,2.6,79,0.00,CLR,FEW,0.00,0.0,WeatherDisplay:10.37,2013-06-05 19:38:00,
2013-06-05 21:43:00,58.3,51.8,28.94,SSE,150,2.3,2.6,79,0.00,CLR,FEW,0.00,0.0,WeatherDisplay:10.37,2013-06-05 19:43:00,
2013-06-05 21:48:00,58.3,51.4,28.94,SSW,195,3.5,3.5,78,0.00,CLR,FEW,0.00,0.0,WeatherDisplay:10.37,2013-06-05 19:48:00,
2013-06-05 21:53:00,58.1,51.6,28.97,South,170,3.5,3.8,79,0.00,CLR,FEW,0.00,0.0,WeatherDisplay:10.37,2013-06-05 19:53:00,
2013-06-05 21:58:00,57.9,51.4,28.97,SW,215,1.1,1.1,79,0.00,CLR,FEW,0.00,0.0,WeatherDisplay:10.37,2013-06-05 19:58:00,
2013-06-05 22:03:00,57.6,51.4,28.97,SE,140,0.0,0.0,80,0.00,CLR,FEW,0.00,0.0,WeatherDisplay:10.37,2013-06-05 20:03:00,
2013-06-05 22:08:00,57.2,51.4,28.97,SE,140,0.0,0.0,81,0.00,CLR,FEW,0.00,0.0,WeatherDisplay:10.37,2013-06-05 20:08:00,
2013-06-05 22:13:00,56.8,51.1,28.97,SE,140,0.0,0.0,81,0.00,CLR,FEW,0.00,0.0,WeatherDisplay:10.37,2013-06-05 20:13:00,
2013-06-05 22:18:00,56.8,51.1,28.97,SE,140,0.0,0.0,81,0.00,CLR,FEW,0.00,0.0,WeatherDisplay:10.37,2013-06-05 20:18:00,
2013-06-05 22:23:00,56.1,51.0,28.97,SE,140,0.0,0.0,83,0.00,CLR,FEW,0.00,0.0,WeatherDisplay:10.37,2013-06-05 20:23:00,
2013-06-05 22:28:00,55.4,51.0,28.97,SE,140,0.0,0.0,85,0.00,CLR,FEW,0.00,0.0,WeatherDisplay:10.37,2013-06-05 20:28:00,
2013-06-05 22:33:00,55.2,51.1,28.97,SE,140,0.0,0.0,86,0.00,CLR,FEW,0.00,0.0,WeatherDisplay:10.37,2013-06-05 20:33:00,
2013-06-05 22:38:00,54.9,50.8,28.97,SE,140,0.0,0.0,86,0.00,CLR,FEW,0.00,0.0,WeatherDisplay:10.37,2013-06-05 20:38:00,
2013-06-05 22:43:00,54.9,50.8,28.97,SE,140,0.0,0.0,86,0.00,CLR,FEW,0.00,0.0,WeatherDisplay:10.37,2013-06-05 20:43:00,
2013-06-05 22:48:00,54.7,50.9,28.97,SE,140,0.0,0.0,87,0.00,CLR,FEW,0.00,0.0,WeatherDisplay:10.37,2013-06-05 20:48:00,
2013-06-05 22:53:00,54.3,50.8,28.97,SE,140,0.0,0.0,88,0.00,CLR,FEW,0.00,0.0,WeatherDisplay:10.37,2013-06-05 20:53:00,
2013-06-05 22:58:00,54.3,50.8,28.97,SE,140,0.0,0.0,88,0.00,CLR,FEW,0.00,0.0,WeatherDisplay:10.37,2013-06-05 20:58:00,
2013-06-05 23:03:00,54.3,50.8,28.97,SE,140,0.0,0.0,88,0.00,CLR,FEW,0.00,0.0,WeatherDisplay:10.37,2013-06-05 21:03:00,
2013-06-05 23:08:00,54.3,50.8,28.97,SE,140,0.0,0.0,88,0.00,CLR,FEW,0.00,0.0,WeatherDisplay:10.37,2013-06-05 21:08:00,
2013-06-05 23:13:00,54.1,51.0,28.97,SE,140,0.0,0.0,89,0.00,CLR,FEW,0.00,0.0,WeatherDisplay:10.37,2013-06-05 21:13:00,
2013-06-05 23:18:00,54.1,51.0,28.97,SE,140,0.0,0.0,89,0.00,CLR,FEW,0.00,0.0,WeatherDisplay:10.37,2013-06-05 21:18:00,
2013-06-05 23:23:00,54.0,51.1,28.97,SE,140,0.0,0.0,90,0.00,CLR,FEW,0.00,0.0,WeatherDisplay:10.37,2013-06-05 21:23:00,
2013-06-05 23:28:00,54.1,51.3,28.97,SE,140,0.0,0.0,90,0.00,CLR,FEW,0.00,0.0,WeatherDisplay:10.37,2013-06-05 21:28:00,
2013-06-05 23:33:00,54.1,51.3,28.97,SE,140,0.0,0.0,90,0.00,CLR,FEW,0.00,0.0,WeatherDisplay:10.37,2013-06-05 21:33:00,
2013-06-05 23:39:00,54.0,51.1,28.97,SE,140,0.0,0.0,90,0.00,CLR,FEW,0.00,0.0,WeatherDisplay:10.37,2013-06-05 21:39:00,
2013-06-05 23:44:00,54.0,51.1,28.97,SE,140,0.0,0.0,90,0.00,CLR,FEW,0.00,0.0,WeatherDisplay:10.37,2013-06-05 21:44:00,
2013-06-05 23:49:00,54.0,51.4,28.97,SE,140,0.0,0.0,91,0.00,CLR,FEW,0.00,0.0,WeatherDisplay:10.37,2013-06-05 21:49:00,
2013-06-05 23:54:00,54.0,51.4,28.97,SE,140,0.0,0.0,91,0.00,CLR,FEW,0.00,0.0,WeatherDisplay:10.37,2013-06-05 21:54:00,
2013-06-05 23:59:00,54.0,51.4,28.97,SE,140,0.0,0.0,91,0.00,CLR,FEW,0.00,0.0,WeatherDisplay:10.37,2013-06-05 21:59:00,